Terminal Aerodrome Forecast
Issued by NWS

Home | Current Version | Previous Version | Graphics & Text | Print | Product List | Glossary On
Versions: 1 2 3 4 5 6 7 8 9 10 11 12 13 14 15 16 17 18
000
FTUS43 KABR 211123
TAFPIR
TAF
KPIR 211123Z 2112/2212 09008KT P6SM VCTS BKN080CB
      TEMPO 2112/2116 VRB20G30KT TSRA
     FM211800 35005KT P6SM BKN060
     FM220000 35011KT P6SM FEW200
     FM220500 35007KT P6SM FEW250=

USA.gov is the U.S. government's official web portal to all federal, state and local government web resources and services.